createdAt,value
2018-05-04T00:01:50.128Z,2.90
2018-05-04T00:04:17.262Z,2.13
2018-05-04T00:06:45.277Z,2.10
2018-05-04T00:09:11.642Z,3.30
2018-05-04T00:11:37.997Z,2.37
2018-05-04T00:14:05.037Z,2.73
2018-05-04T00:16:31.391Z,3.23
2018-05-04T00:18:57.771Z,2.53
2018-05-04T00:21:24.078Z,3.63
2018-05-04T00:23:56.603Z,2.40
2018-05-04T00:26:22.973Z,2.20
2018-05-04T00:28:49.749Z,3.20
2018-05-04T00:31:16.062Z,2.70
2018-05-04T00:33:43.121Z,2.10
2018-05-04T00:36:09.434Z,2.80
2018-05-04T00:38:37.286Z,2.33
2018-05-04T00:41:03.617Z,2.60
2018-05-04T00:43:29.943Z,2.80
2018-05-04T00:45:56.977Z,3.07
2018-05-04T00:48:23.309Z,2.43
2018-05-04T00:50:50.399Z,3.03
2018-05-04T00:53:17.490Z,2.80
2018-05-04T00:55:43.836Z,2.20
2018-05-04T00:58:10.169Z,2.87
2018-05-04T01:00:36.509Z,2.80
2018-05-04T01:03:02.839Z,3.50
2018-05-04T01:05:29.213Z,3.37
2018-05-04T01:07:55.526Z,2.63
2018-05-04T01:10:22.619Z,2.83
2018-05-04T01:12:48.913Z,2.53
2018-05-04T01:15:15.982Z,2.40
2018-05-04T01:17:43.078Z,2.80
2018-05-04T01:20:09.414Z,3.20
2018-05-04T01:22:35.733Z,2.97
2018-05-04T01:25:02.121Z,3.10
2018-05-04T01:27:28.434Z,2.50
2018-05-04T01:29:54.763Z,3.23
2018-05-04T01:32:21.913Z,2.90
2018-05-04T01:34:56.107Z,2.70
2018-05-04T01:37:22.426Z,3.00
2018-05-04T01:39:48.758Z,3.87
2018-05-04T01:42:15.110Z,4.20
2018-05-04T01:44:42.271Z,3.20
2018-05-04T01:47:08.588Z,3.07
2018-05-04T01:49:34.968Z,4.70
2018-05-04T01:52:01.286Z,2.90
2018-05-04T01:54:27.885Z,4.30
2018-05-04T01:56:54.223Z,3.13
2018-05-04T01:59:20.549Z,3.60
2018-05-04T02:01:46.871Z,3.43
2018-05-04T02:04:13.202Z,3.97
2018-05-04T02:06:39.551Z,3.60
2018-05-04T02:09:05.964Z,2.83
2018-05-04T02:11:33.033Z,3.30
2018-05-04T02:13:59.382Z,4.10
2018-05-04T02:16:25.710Z,3.60
2018-05-04T02:18:52.784Z,3.70
2018-05-04T02:21:19.213Z,4.67
2018-05-04T02:23:46.288Z,3.53
2018-05-04T02:26:12.637Z,4.03
2018-05-04T02:28:38.963Z,4.70
2018-05-04T02:31:05.327Z,4.03
2018-05-04T02:33:31.667Z,5.37
2018-05-04T02:35:58.043Z,4.73
2018-05-04T02:38:24.403Z,4.33
2018-05-04T02:40:51.524Z,3.83
2018-05-04T02:43:17.854Z,3.47
2018-05-04T02:45:44.349Z,4.30
2018-05-04T02:48:10.681Z,4.80
2018-05-04T02:50:37.037Z,3.80
2018-05-04T02:53:04.121Z,4.37
2018-05-04T02:55:31.302Z,3.50
2018-05-04T02:57:57.555Z,4.90
2018-05-04T03:00:23.887Z,4.30
2018-05-04T03:02:50.189Z,5.10
2018-05-04T03:05:16.554Z,6.10
2018-05-04T03:07:42.860Z,5.40
2018-05-04T03:10:09.186Z,4.57
2018-05-04T03:12:35.572Z,4.67
2018-05-04T03:15:02.669Z,4.20
2018-05-04T03:17:29.157Z,3.73
2018-05-04T03:19:55.524Z,4.00
2018-05-04T03:22:21.893Z,5.80
2018-05-04T03:24:48.271Z,4.60
2018-05-04T03:27:14.680Z,4.53
2018-05-04T03:29:41.107Z,5.00
2018-05-04T03:32:07.704Z,5.33
2018-05-04T03:34:34.077Z,6.10
2018-05-04T03:37:00.442Z,5.30
2018-05-04T03:39:26.797Z,5.67
2018-05-04T03:41:53.197Z,6.30
2018-05-04T03:44:20.313Z,6.23
2018-05-04T03:46:47.763Z,6.20
2018-05-04T03:49:14.196Z,7.23
2018-05-04T03:51:40.559Z,6.40
2018-05-04T03:54:06.924Z,6.27
2018-05-04T03:56:33.356Z,5.73
2018-05-04T04:02:17.662Z,7.00
2018-05-04T04:04:44.067Z,7.03
2018-05-04T04:07:10.431Z,6.10
2018-05-04T04:09:36.826Z,7.70
2018-05-04T04:12:03.938Z,7.30
2018-05-04T04:14:31.108Z,8.80
2018-05-04T04:16:57.458Z,8.93
2018-05-04T04:19:23.884Z,9.40
2018-05-04T04:21:50.274Z,8.83
2018-05-04T04:24:16.732Z,8.37
2018-05-04T04:26:43.093Z,8.87
2018-05-04T04:29:09.486Z,7.90
2018-05-04T04:31:35.873Z,7.50
2018-05-04T04:34:02.327Z,7.67
2018-05-04T04:36:28.724Z,8.80
2018-05-04T04:38:55.182Z,8.30
2018-05-04T04:41:21.516Z,8.37
2018-05-04T04:43:48.802Z,7.47
2018-05-04T04:46:15.182Z,9.33
2018-05-04T04:48:42.281Z,7.80
2018-05-04T04:51:08.781Z,8.10
2018-05-04T04:53:35.187Z,8.10
2018-05-04T04:56:02.565Z,9.47
2018-05-04T04:58:29.047Z,7.23
2018-05-04T05:00:56.368Z,8.57
2018-05-04T05:03:24.651Z,9.60
2018-05-04T05:05:51.042Z,7.50
2018-05-04T05:08:17.409Z,8.07
2018-05-04T05:10:43.853Z,8.17
2018-05-04T05:13:10.707Z,9.30
2018-05-04T05:15:37.075Z,9.47
2018-05-04T05:18:04.175Z,9.80
2018-05-04T05:20:30.623Z,8.37
2018-05-04T05:22:57.231Z,9.00
2018-05-04T05:25:23.633Z,9.57
2018-05-04T05:27:50.885Z,8.10
2018-05-04T05:30:17.270Z,8.10
2018-05-04T05:32:43.724Z,7.80
2018-05-04T05:35:10.145Z,9.50
2018-05-04T05:37:36.540Z,9.17
2018-05-04T05:40:02.916Z,9.33
2018-05-04T05:42:30.078Z,9.33
2018-05-04T05:44:56.424Z,9.57
2018-05-04T05:47:22.952Z,10.67
2018-05-04T05:49:49.376Z,9.53
2018-05-04T05:52:16.572Z,10.23
2018-05-04T05:54:43.016Z,9.23
2018-05-04T05:57:09.577Z,9.40
2018-05-04T05:59:35.964Z,10.37
2018-05-04T06:02:02.397Z,8.80
2018-05-04T06:04:28.786Z,9.30
2018-05-04T06:06:55.214Z,8.23
2018-05-04T06:09:21.609Z,9.97
2018-05-04T06:11:48.779Z,8.57
2018-05-04T06:14:16.066Z,8.80
2018-05-04T06:16:42.442Z,9.67
2018-05-04T06:19:08.848Z,8.10
2018-05-04T06:21:35.766Z,8.50
2018-05-04T06:24:03.006Z,9.23
2018-05-04T06:26:31.659Z,9.10
2018-05-04T06:28:58.193Z,10.23
2018-05-04T06:31:24.765Z,8.23
2018-05-04T06:33:51.246Z,9.53
2018-05-04T06:36:17.675Z,9.90
2018-05-04T06:38:44.173Z,9.30
2018-05-04T06:41:10.638Z,9.03
2018-05-04T06:43:37.080Z,9.57
2018-05-04T06:46:04.419Z,9.90
2018-05-04T06:48:32.050Z,9.73
2018-05-04T06:50:58.517Z,10.17
2018-05-04T06:53:24.912Z,9.47
2018-05-04T06:55:51.322Z,10.27
2018-05-04T06:58:17.727Z,9.40
2018-05-04T07:00:44.182Z,7.83
2018-05-04T07:03:10.613Z,9.50
2018-05-04T07:05:37.036Z,8.87
2018-05-04T07:08:04.732Z,9.07
2018-05-04T07:10:31.293Z,10.40
2018-05-04T07:12:57.668Z,10.03
2018-05-04T07:15:24.110Z,8.20
2018-05-04T07:17:50.525Z,9.70
2018-05-04T07:20:16.925Z,9.70
2018-05-04T07:22:43.412Z,9.20
2018-05-04T07:25:10.674Z,9.10
2018-05-04T07:27:37.080Z,8.97
2018-05-04T07:30:04.311Z,10.73
2018-05-04T07:32:30.716Z,9.27
2018-05-04T07:34:57.169Z,7.53
2018-05-04T07:37:23.976Z,9.10
2018-05-04T07:39:50.374Z,7.87
2018-05-04T07:42:16.852Z,9.07
2018-05-04T07:44:43.570Z,8.63
2018-05-04T07:47:10.047Z,9.97
2018-05-04T07:49:36.829Z,9.80
2018-05-04T07:52:03.746Z,9.20
2018-05-04T07:54:30.163Z,8.73
2018-05-04T07:56:57.275Z,9.77
2018-05-04T07:59:24.449Z,8.90
2018-05-04T08:01:50.890Z,7.87
2018-05-04T08:04:17.480Z,8.67
2018-05-04T08:06:44.677Z,8.83
2018-05-04T08:12:41.777Z,7.80
2018-05-04T08:15:10.329Z,8.63
2018-05-04T08:17:36.705Z,8.90
2018-05-04T08:20:03.949Z,7.87
2018-05-04T08:22:30.378Z,8.07
2018-05-04T08:24:58.602Z,9.00
2018-05-04T08:27:26.636Z,9.63
2018-05-04T08:29:53.804Z,8.93
2018-05-04T08:32:20.471Z,9.50
2018-05-04T08:34:46.897Z,7.53
2018-05-04T08:37:14.040Z,8.93
2018-05-04T08:39:40.453Z,9.60
2018-05-04T08:42:06.846Z,8.97
2018-05-04T08:44:33.258Z,7.90
2018-05-04T08:46:59.654Z,7.30
2018-05-04T08:49:26.116Z,8.03
2018-05-04T08:51:52.507Z,5.70
2018-05-04T08:54:18.861Z,4.50
2018-05-04T08:56:45.274Z,7.73
2018-05-04T08:59:11.630Z,7.93
2018-05-04T09:01:38.035Z,6.30
2018-05-04T09:04:05.313Z,7.33
2018-05-04T09:06:32.501Z,6.07
2018-05-04T09:08:58.853Z,4.63
2018-05-04T09:11:25.311Z,5.00
2018-05-04T09:13:51.795Z,6.23
2018-05-04T09:16:18.220Z,7.23
2018-05-04T09:18:44.694Z,5.83
2018-05-04T09:21:11.141Z,5.70
2018-05-04T09:23:37.541Z,5.53
2018-05-04T09:26:04.128Z,6.70
2018-05-04T09:28:30.590Z,6.67
2018-05-04T09:30:57.828Z,6.20
2018-05-04T09:33:24.552Z,4.90
2018-05-04T09:35:51.231Z,5.00
2018-05-04T09:38:17.717Z,4.43
2018-05-04T09:40:44.201Z,4.10
2018-05-04T09:43:10.738Z,3.93
2018-05-04T09:45:37.279Z,5.40
2018-05-04T09:48:04.098Z,4.80
2018-05-04T09:50:30.533Z,4.30
2018-05-04T09:52:56.985Z,4.83
2018-05-04T09:55:23.416Z,4.40
2018-05-04T09:57:49.984Z,4.30
2018-05-04T10:00:16.549Z,4.63
2018-05-04T10:02:43.068Z,4.93
2018-05-04T10:05:09.624Z,5.43
2018-05-04T10:07:36.114Z,3.97
2018-05-04T10:10:03.741Z,4.77
2018-05-04T10:12:30.312Z,3.80
2018-05-04T10:14:56.843Z,5.03
2018-05-04T10:17:23.401Z,4.80
2018-05-04T10:19:51.340Z,3.90
2018-05-04T10:22:17.764Z,4.10
2018-05-04T10:24:44.134Z,4.10
2018-05-04T10:27:11.282Z,5.10
2018-05-04T10:29:37.744Z,4.33
2018-05-04T10:32:05.742Z,4.50
2018-05-04T10:34:32.196Z,4.80
2018-05-04T10:36:59.505Z,3.10
2018-05-04T10:39:26.205Z,4.70
2018-05-04T10:41:53.240Z,4.57
2018-05-04T10:44:19.865Z,4.00
2018-05-04T10:46:46.361Z,4.10
2018-05-04T10:49:13.931Z,4.87
2018-05-04T10:51:41.128Z,5.00
2018-05-04T10:54:08.175Z,4.27
2018-05-04T10:56:36.438Z,4.80
2018-05-04T10:59:02.997Z,4.30
2018-05-04T11:01:29.604Z,4.77
2018-05-04T11:03:56.108Z,5.00
2018-05-04T11:06:22.650Z,4.87
2018-05-04T11:08:49.919Z,4.83
2018-05-04T11:11:16.405Z,4.83
2018-05-04T11:13:42.926Z,4.23
2018-05-04T11:16:10.118Z,4.50
2018-05-04T11:18:36.654Z,4.40
2018-05-04T11:21:03.225Z,4.83
2018-05-04T11:23:30.482Z,4.33
2018-05-04T11:25:56.928Z,5.20
2018-05-04T11:28:24.197Z,5.47
2018-05-04T11:30:50.684Z,5.40
2018-05-04T11:33:17.926Z,5.50
2018-05-04T11:35:44.561Z,5.70
2018-05-04T11:38:10.970Z,5.33
2018-05-04T11:40:37.526Z,5.40
2018-05-04T11:43:04.051Z,4.70
2018-05-04T11:45:30.496Z,5.10
2018-05-04T11:47:57.717Z,5.77
2018-05-04T11:50:24.906Z,4.20
2018-05-04T11:52:52.028Z,5.03
2018-05-04T11:55:19.303Z,6.17
2018-05-04T11:57:45.748Z,5.73
2018-05-04T12:00:13.127Z,5.47
2018-05-04T12:02:39.674Z,5.40
2018-05-04T12:05:07.063Z,5.23
2018-05-04T12:07:34.404Z,4.93
2018-05-04T12:10:01.773Z,4.70
2018-05-04T12:12:28.297Z,4.67
2018-05-04T12:14:54.702Z,5.23
2018-05-04T12:17:21.101Z,4.90
2018-05-04T12:19:47.573Z,4.20
2018-05-04T12:22:14.035Z,4.60
2018-05-04T12:24:40.768Z,5.67
2018-05-04T12:27:07.314Z,5.30
2018-05-04T12:29:33.811Z,4.50
2018-05-04T12:32:00.294Z,4.20
2018-05-04T12:34:29.372Z,4.60
2018-05-04T12:36:55.896Z,4.43
2018-05-04T12:39:23.075Z,5.23
2018-05-04T12:41:50.371Z,5.93
2018-05-04T12:44:16.792Z,5.53
2018-05-04T12:46:44.564Z,4.30
2018-05-04T12:49:10.953Z,4.63
2018-05-04T12:51:38.158Z,4.80
2018-05-04T12:54:04.893Z,4.50
2018-05-04T12:56:35.064Z,4.10
2018-05-04T12:59:01.562Z,4.47
2018-05-04T13:01:28.003Z,5.40
2018-05-04T13:03:54.449Z,4.20
2018-05-04T13:06:20.886Z,4.03
2018-05-04T13:08:48.098Z,4.87
2018-05-04T13:11:14.538Z,4.77
2018-05-04T13:13:41.039Z,4.23
2018-05-04T13:16:08.257Z,3.70
2018-05-04T13:18:34.719Z,3.63
2018-05-04T13:21:01.862Z,3.87
2018-05-04T13:23:29.069Z,4.10
2018-05-04T13:25:55.572Z,4.60
2018-05-04T13:28:22.047Z,4.50
2018-05-04T13:30:48.608Z,4.70
2018-05-04T13:33:15.088Z,4.13
2018-05-04T13:35:41.497Z,4.80
2018-05-04T13:38:07.911Z,4.80
2018-05-04T13:40:35.957Z,4.60
2018-05-04T13:43:02.455Z,4.33
2018-05-04T13:45:30.098Z,5.20
2018-05-04T13:47:57.292Z,4.67
2018-05-04T13:50:24.512Z,5.40
2018-05-04T13:52:50.943Z,4.70
2018-05-04T13:55:17.474Z,3.90
2018-05-04T13:57:44.728Z,4.80
2018-05-04T14:00:11.192Z,4.33
2018-05-04T14:02:37.980Z,5.13
2018-05-04T14:05:04.426Z,4.20
2018-05-04T14:07:30.937Z,4.60
2018-05-04T14:09:57.389Z,3.47
2018-05-04T14:12:23.865Z,5.40
2018-05-04T14:14:50.347Z,5.13
2018-05-04T14:17:16.796Z,3.90
2018-05-04T14:19:43.348Z,4.10
2018-05-04T14:22:09.721Z,5.40
2018-05-04T14:24:36.930Z,4.50
2018-05-04T14:27:03.320Z,5.47
2018-05-04T14:29:31.598Z,6.00
2018-05-04T14:31:58.728Z,5.20
2018-05-04T14:34:25.326Z,5.57
2018-05-04T14:36:51.730Z,4.30
2018-05-04T14:39:18.195Z,4.80
2018-05-04T14:41:44.649Z,5.10
2018-05-04T14:44:12.938Z,5.83
2018-05-04T14:46:40.911Z,4.87
2018-05-04T14:49:07.314Z,5.60
2018-05-04T14:51:33.715Z,4.87
2018-05-04T14:54:00.203Z,4.97
2018-05-04T14:56:26.662Z,4.63
2018-05-04T14:58:53.046Z,5.17
2018-05-04T15:01:19.421Z,4.97
2018-05-04T15:03:45.858Z,5.20
2018-05-04T15:06:12.280Z,4.17
2018-05-04T15:08:38.766Z,5.60
2018-05-04T15:11:05.909Z,4.33
2018-05-04T15:13:33.050Z,4.53
2018-05-04T15:15:59.599Z,5.20
2018-05-04T15:18:27.930Z,5.33
2018-05-04T15:20:54.359Z,5.50
2018-05-04T15:23:20.679Z,4.63
2018-05-04T15:25:47.103Z,4.43
2018-05-04T15:28:13.611Z,5.10
2018-05-04T15:30:40.921Z,4.30
2018-05-04T15:33:07.389Z,4.20
2018-05-04T15:35:34.621Z,5.00
2018-05-04T15:38:01.158Z,4.67
2018-05-04T15:40:27.658Z,4.93
2018-05-04T15:42:53.972Z,5.00
2018-05-04T15:45:20.394Z,5.30
2018-05-04T15:47:46.819Z,5.07
2018-05-04T15:50:20.123Z,5.57
2018-05-04T15:52:46.612Z,5.17
2018-05-04T15:55:12.964Z,4.40
2018-05-04T15:57:39.398Z,4.50
2018-05-04T16:00:05.816Z,4.80
2018-05-04T16:02:32.938Z,5.00
2018-05-04T16:04:59.289Z,4.87
2018-05-04T16:07:26.442Z,4.93
2018-05-04T16:09:52.793Z,4.53
2018-05-04T16:12:20.007Z,4.87
2018-05-04T16:14:46.377Z,3.60
2018-05-04T16:17:12.746Z,4.20
2018-05-04T16:19:39.126Z,4.60
2018-05-04T16:22:06.405Z,4.73
2018-05-04T16:24:32.768Z,4.43
2018-05-04T16:26:59.203Z,5.20
2018-05-04T16:29:25.631Z,5.90
2018-05-04T16:31:52.446Z,4.00
2018-05-04T16:34:18.825Z,4.67
2018-05-04T16:36:45.352Z,4.63
2018-05-04T16:39:11.838Z,3.60
2018-05-04T16:41:38.307Z,5.43
2018-05-04T16:44:05.593Z,5.47
2018-05-04T16:46:37.999Z,5.13
2018-05-04T16:49:10.437Z,5.17
2018-05-04T16:51:36.845Z,5.33
2018-05-04T16:54:03.985Z,4.90
2018-05-04T16:56:30.779Z,5.17
2018-05-04T16:58:57.474Z,5.03
2018-05-04T17:01:24.679Z,5.20
2018-05-04T17:03:51.187Z,5.43
2018-05-04T17:06:17.647Z,5.43
2018-05-04T17:08:44.079Z,6.33
2018-05-04T17:11:11.296Z,5.33
2018-05-04T17:13:37.771Z,5.63
2018-05-04T17:16:04.868Z,5.97
2018-05-04T17:18:31.353Z,5.33
2018-05-04T17:20:57.769Z,5.10
2018-05-04T17:23:24.226Z,5.27
2018-05-04T17:25:50.640Z,5.33
2018-05-04T17:28:17.071Z,5.70
2018-05-04T17:30:43.502Z,6.17
2018-05-04T17:33:10.628Z,6.00
2018-05-04T17:35:38.537Z,5.53
2018-05-04T17:38:05.083Z,4.60
2018-05-04T17:40:32.255Z,5.20
2018-05-04T17:42:58.643Z,5.23
2018-05-04T17:45:25.126Z,4.87
2018-05-04T17:47:51.566Z,4.67
2018-05-04T17:50:18.084Z,4.50
2018-05-04T17:52:45.248Z,4.90
2018-05-04T17:55:11.747Z,4.73
2018-05-04T17:57:39.014Z,4.93
2018-05-04T18:00:05.909Z,5.10
2018-05-04T18:02:32.577Z,4.70
2018-05-04T18:04:59.027Z,5.00
2018-05-04T18:07:25.383Z,5.33
2018-05-04T18:09:51.779Z,5.97
2018-05-04T18:12:18.252Z,4.20
2018-05-04T18:14:45.462Z,4.63
2018-05-04T18:17:11.817Z,5.97
2018-05-04T18:19:38.266Z,5.50
2018-05-04T18:22:04.831Z,4.73
2018-05-04T18:24:31.293Z,5.70
2018-05-04T18:26:57.711Z,5.30
2018-05-04T18:29:24.271Z,5.80
2018-05-04T18:31:50.644Z,5.53
2018-05-04T18:34:17.736Z,5.93
2018-05-04T18:36:44.106Z,6.47
2018-05-04T18:39:10.491Z,5.83
2018-05-04T18:41:37.016Z,5.37
2018-05-04T18:44:03.999Z,5.80
2018-05-04T18:46:30.375Z,5.83
2018-05-04T18:48:56.848Z,5.80
2018-05-04T18:51:23.291Z,6.23
2018-05-04T18:53:49.647Z,5.67
2018-05-04T18:56:16.739Z,5.60
2018-05-04T18:58:43.066Z,6.30
2018-05-04T19:01:10.569Z,5.70
2018-05-04T19:03:36.893Z,5.47
2018-05-04T19:06:03.882Z,6.07
2018-05-04T19:08:30.246Z,6.77
2018-05-04T19:10:56.603Z,5.37
2018-05-04T19:13:22.949Z,6.20
2018-05-04T19:15:49.437Z,6.13
2018-05-04T19:18:16.530Z,6.00
2018-05-04T19:20:42.952Z,6.73
2018-05-04T19:23:09.644Z,5.17
2018-05-04T19:25:36.908Z,5.73
2018-05-04T19:28:03.478Z,6.30
2018-05-04T19:30:30.021Z,6.43
2018-05-04T19:32:57.325Z,6.10
2018-05-04T19:35:23.698Z,6.13
2018-05-04T19:37:53.783Z,7.50
2018-05-04T19:40:20.145Z,7.00
2018-05-04T19:42:46.470Z,5.47
2018-05-04T19:45:12.767Z,5.90
2018-05-04T19:47:39.201Z,6.53
2018-05-04T19:50:06.726Z,6.60
2018-05-04T19:52:33.183Z,6.10
2018-05-04T19:54:59.556Z,5.90
2018-05-04T19:57:26.001Z,5.93
2018-05-04T19:59:52.335Z,6.47
2018-05-04T20:02:18.794Z,5.00
2018-05-04T20:04:45.095Z,5.53
2018-05-04T20:07:11.743Z,5.77
2018-05-04T20:09:38.002Z,5.87
2018-05-04T20:12:05.438Z,6.80
2018-05-04T20:14:31.743Z,5.10
2018-05-04T20:16:58.885Z,5.80
2018-05-04T20:19:25.235Z,5.90
2018-05-04T20:21:53.053Z,6.37
2018-05-04T20:24:19.398Z,6.00
2018-05-04T20:26:45.697Z,5.03
2018-05-04T20:29:12.085Z,6.00
2018-05-04T20:31:38.404Z,5.67
2018-05-04T20:34:04.906Z,5.50
2018-05-04T20:36:32.019Z,6.10
2018-05-04T20:38:58.463Z,7.00
2018-05-04T20:41:25.513Z,5.20
2018-05-04T20:43:51.829Z,5.50
2018-05-04T20:46:18.972Z,5.57
2018-05-04T20:48:45.341Z,5.87
2018-05-04T20:51:12.422Z,6.30
2018-05-04T20:53:40.249Z,5.00
2018-05-04T20:56:06.861Z,5.90
2018-05-04T20:58:33.192Z,4.97
2018-05-04T21:01:00.315Z,5.97
2018-05-04T21:03:26.677Z,5.73
2018-05-04T21:05:52.986Z,6.70
2018-05-04T21:08:19.366Z,5.90
2018-05-04T21:10:45.672Z,5.23
2018-05-04T21:13:11.969Z,6.80
2018-05-04T21:15:39.095Z,6.80
2018-05-04T21:18:06.235Z,5.67
2018-05-04T21:20:32.602Z,6.33
2018-05-04T21:22:59.731Z,6.50
2018-05-04T21:25:26.078Z,6.10
2018-05-04T21:27:52.410Z,6.77
2018-05-04T21:30:18.748Z,5.40
2018-05-04T21:32:45.106Z,6.27
2018-05-04T21:35:11.482Z,6.60
2018-05-04T21:37:37.914Z,7.27
2018-05-04T21:40:04.642Z,6.80
2018-05-04T21:42:30.994Z,6.50
2018-05-04T21:44:57.331Z,6.70
2018-05-04T21:47:23.667Z,6.70
2018-05-04T21:49:50.805Z,6.17
2018-05-04T21:52:17.211Z,6.07
2018-05-04T21:54:43.549Z,6.80
2018-05-04T21:57:09.983Z,6.20
2018-05-04T21:59:37.101Z,7.17
2018-05-04T22:02:03.506Z,6.20
2018-05-04T22:04:29.797Z,6.43
2018-05-04T22:06:56.124Z,5.67
2018-05-04T22:09:22.513Z,7.20
2018-05-04T22:11:48.831Z,7.40
2018-05-04T22:14:15.117Z,6.70
2018-05-04T22:16:41.488Z,5.80
2018-05-04T22:19:07.833Z,6.60
2018-05-04T22:21:34.986Z,6.47
2018-05-04T22:24:01.275Z,6.50
2018-05-04T22:26:27.632Z,5.67
2018-05-04T22:28:53.906Z,6.13
2018-05-04T22:31:21.004Z,6.10
2018-05-04T22:33:47.360Z,6.93
2018-05-04T22:36:13.668Z,6.23
2018-05-04T22:38:40.715Z,5.77
2018-05-04T22:41:07.210Z,5.50
2018-05-04T22:43:34.227Z,6.93
2018-05-04T22:46:00.525Z,6.80
2018-05-04T22:48:26.851Z,6.77
2018-05-04T22:50:53.225Z,7.10
2018-05-04T22:53:20.297Z,6.53
2018-05-04T22:55:46.671Z,6.00
2018-05-04T22:58:13.006Z,5.70
2018-05-04T23:00:40.054Z,5.63
2018-05-04T23:03:07.130Z,6.00
2018-05-04T23:05:34.185Z,6.70
2018-05-04T23:08:01.301Z,6.00
2018-05-04T23:10:29.126Z,6.20
2018-05-04T23:12:56.173Z,9.10
2018-05-04T23:15:23.435Z,6.40
2018-05-04T23:17:49.786Z,7.00
2018-05-04T23:20:16.992Z,6.43
2018-05-04T23:22:43.323Z,6.30
2018-05-04T23:25:09.663Z,6.10
2018-05-04T23:27:35.972Z,7.77
2018-05-04T23:30:02.560Z,6.63
2018-05-04T23:32:28.933Z,6.17
2018-05-04T23:34:55.273Z,7.03
2018-05-04T23:37:21.615Z,7.50
2018-05-04T23:39:47.926Z,6.50
2018-05-04T23:42:14.302Z,7.43
2018-05-04T23:44:40.635Z,6.83
2018-05-04T23:47:07.045Z,6.53
2018-05-04T23:49:33.443Z,6.70
2018-05-04T23:51:59.751Z,5.70
2018-05-04T23:54:26.103Z,7.77
2018-05-04T23:56:52.454Z,7.23
2018-05-04T23:59:19.002Z,6.30
